createdAt,value
2022-12-04T00:00:29.289Z,1.04
2022-12-04T00:01:28.893Z,1.04
2022-12-04T00:02:29.049Z,1.04
2022-12-04T00:03:29.190Z,1.04
2022-12-04T00:04:29.278Z,1.04
2022-12-04T00:05:29.394Z,1.04
2022-12-04T00:06:29.564Z,1.04
2022-12-04T00:07:29.801Z,1.04
2022-12-04T00:08:29.876Z,1.04
2022-12-04T00:09:30.034Z,1.04
2022-12-04T00:10:30.164Z,1.04
2022-12-04T00:11:30.333Z,1.04
2022-12-04T00:12:30.459Z,1.04
2022-12-04T00:13:30.637Z,1.04
2022-12-04T00:14:30.751Z,1.04
2022-12-04T00:15:31.461Z,1.04
2022-12-04T00:16:31.108Z,1.04
2022-12-04T00:17:31.166Z,1.04
2022-12-04T00:18:31.292Z,1.04
2022-12-04T00:19:31.418Z,1.04
2022-12-04T00:20:31.579Z,1.04
2022-12-04T00:21:31.724Z,1.04
2022-12-04T00:22:32.575Z,1.04
2022-12-04T00:23:31.971Z,1.04
2022-12-04T00:24:32.131Z,1.04
2022-12-04T00:25:35.305Z,1.04
2022-12-04T00:26:32.433Z,1.04
2022-12-04T00:27:32.609Z,1.04
2022-12-04T00:28:32.728Z,1.04
2022-12-04T00:29:32.888Z,1.04
2022-12-04T00:30:33.032Z,1.04
2022-12-04T00:31:33.270Z,1.04
2022-12-04T00:32:33.334Z,1.04
2022-12-04T00:33:33.489Z,1.04
2022-12-04T00:34:33.643Z,1.04
2022-12-04T00:35:33.787Z,1.04
2022-12-04T00:36:33.966Z,1.04
2022-12-04T00:37:34.091Z,1.04
2022-12-04T00:38:34.209Z,1.04
2022-12-04T00:39:34.344Z,1.04
2022-12-04T00:40:34.509Z,1.04
2022-12-04T00:41:34.652Z,1.04
2022-12-04T00:42:34.804Z,1.04
2022-12-04T00:43:35.071Z,1.04
2022-12-04T00:44:35.892Z,1.04
2022-12-04T00:45:35.305Z,1.04
2022-12-04T00:46:35.350Z,1.04
2022-12-04T00:47:35.454Z,1.04
2022-12-04T00:48:35.613Z,1.04
2022-12-04T00:49:35.761Z,1.04
2022-12-04T00:50:35.860Z,1.04
2022-12-04T00:51:36.011Z,1.04
2022-12-04T00:52:36.164Z,1.04
2022-12-04T00:53:36.317Z,1.04
2022-12-04T00:54:36.470Z,1.04
2022-12-04T00:55:36.612Z,1.04
2022-12-04T00:56:36.764Z,1.04
2022-12-04T00:57:36.924Z,1.04
2022-12-04T00:58:37.089Z,1.04
2022-12-04T00:59:37.797Z,1.04
2022-12-04T01:00:37.441Z,1.04
2022-12-04T01:01:37.542Z,1.04
2022-12-04T01:02:37.672Z,1.04
2022-12-04T01:03:37.735Z,1.04
2022-12-04T01:04:37.902Z,1.04
2022-12-04T01:05:38.038Z,1.04
2022-12-04T01:06:38.188Z,1.04
2022-12-04T01:07:38.375Z,1.04
2022-12-04T01:08:38.489Z,1.04
2022-12-04T01:09:38.643Z,1.04
2022-12-04T01:10:38.758Z,1.04
2022-12-04T01:11:38.891Z,1.04
2022-12-04T01:12:39.041Z,1.04
2022-12-04T01:13:39.204Z,1.04
2022-12-04T01:14:39.814Z,1.04
2022-12-04T01:15:39.486Z,1.04
2022-12-04T01:16:39.701Z,1.04
2022-12-04T01:17:39.822Z,1.04
2022-12-04T01:18:39.913Z,1.04
2022-12-04T01:19:40.063Z,1.04
2022-12-04T01:20:40.199Z,1.04
2022-12-04T01:21:40.312Z,1.04
2022-12-04T01:22:40.467Z,1.04
2022-12-04T01:23:40.621Z,1.04
2022-12-04T01:24:40.766Z,1.04
2022-12-04T01:25:40.910Z,1.04
2022-12-04T01:26:41.064Z,1.04
2022-12-04T01:27:41.176Z,1.04
2022-12-04T01:28:41.321Z,1.04
2022-12-04T01:29:42.051Z,1.04
2022-12-04T01:30:41.609Z,1.04
2022-12-04T01:31:41.869Z,1.04
2022-12-04T01:32:41.927Z,1.04
2022-12-04T01:33:42.098Z,1.04
2022-12-04T01:34:42.237Z,1.04
2022-12-04T01:35:42.369Z,1.04
2022-12-04T01:36:42.527Z,1.04
2022-12-04T01:37:42.682Z,1.04
2022-12-04T01:38:42.832Z,1.04
2022-12-04T01:39:42.977Z,1.04
2022-12-04T01:40:43.091Z,1.04
2022-12-04T01:41:43.209Z,1.04
2022-12-04T01:42:43.337Z,1.04
2022-12-04T01:43:43.492Z,1.04
2022-12-04T01:44:44.170Z,1.04
2022-12-04T01:45:43.841Z,1.04
2022-12-04T01:46:43.841Z,1.04
2022-12-04T01:47:43.984Z,1.04
2022-12-04T01:48:44.161Z,1.04
2022-12-04T01:49:44.309Z,1.04
2022-12-04T01:50:44.446Z,1.04
2022-12-04T01:51:44.621Z,1.04
2022-12-04T01:52:44.694Z,1.04
2022-12-04T01:53:44.844Z,1.04
2022-12-04T01:54:45.014Z,1.04
2022-12-04T01:55:45.154Z,1.04
2022-12-04T01:56:45.278Z,1.04
2022-12-04T01:57:45.410Z,1.04
2022-12-04T01:58:45.518Z,1.04
2022-12-04T01:59:46.273Z,1.04
2022-12-04T02:00:49.724Z,1.04
2022-12-04T02:01:46.049Z,1.04
2022-12-04T02:02:46.160Z,1.04
2022-12-04T02:03:46.272Z,1.04
2022-12-04T02:04:46.413Z,1.04
2022-12-04T02:05:46.573Z,1.04
2022-12-04T02:06:46.729Z,1.04
2022-12-04T02:07:46.958Z,1.04
2022-12-04T02:08:46.984Z,1.04
2022-12-04T02:09:47.134Z,1.04
2022-12-04T02:10:47.268Z,1.04
2022-12-04T02:11:47.434Z,1.04
2022-12-04T02:12:47.524Z,1.04
2022-12-04T02:13:47.684Z,1.04
2022-12-04T02:14:48.310Z,1.04
2022-12-04T02:15:47.966Z,1.04
2022-12-04T02:16:48.156Z,1.04
2022-12-04T02:17:48.236Z,1.04
2022-12-04T02:18:48.387Z,1.04
2022-12-04T02:19:48.537Z,1.04
2022-12-04T02:20:48.686Z,1.04
2022-12-04T02:21:48.866Z,1.04
2022-12-04T02:22:49.000Z,1.04
2022-12-04T02:23:49.161Z,1.04
2022-12-04T02:24:50.280Z,1.04
2022-12-04T02:25:49.454Z,1.04
2022-12-04T02:26:49.594Z,1.04
2022-12-04T02:27:49.748Z,1.04
2022-12-04T02:28:49.910Z,1.04
2022-12-04T02:29:50.559Z,1.04
2022-12-04T02:30:50.227Z,1.04
2022-12-04T02:31:50.297Z,1.04
2022-12-04T02:32:50.456Z,1.04
2022-12-04T02:33:50.613Z,1.04
2022-12-04T02:34:50.761Z,1.04
2022-12-04T02:35:50.910Z,1.04
2022-12-04T02:36:51.054Z,1.04
2022-12-04T02:37:51.221Z,1.04
2022-12-04T02:38:51.324Z,1.04
2022-12-04T02:39:51.476Z,1.04
2022-12-04T02:40:51.581Z,1.04
2022-12-04T02:41:51.735Z,1.04
2022-12-04T02:42:51.891Z,1.04
2022-12-04T02:43:52.019Z,1.04
2022-12-04T02:44:52.660Z,1.04
2022-12-04T02:45:52.397Z,1.04
2022-12-04T02:46:52.418Z,1.04
2022-12-04T02:47:52.579Z,1.04
2022-12-04T02:48:52.726Z,1.04
2022-12-04T02:49:53.093Z,1.04
2022-12-04T02:50:53.034Z,1.04
2022-12-04T02:51:53.185Z,1.04
2022-12-04T02:52:53.342Z,1.04
2022-12-04T02:53:53.492Z,1.04
2022-12-04T02:54:53.642Z,1.04
2022-12-04T02:55:53.831Z,1.04
2022-12-04T02:56:53.947Z,1.04
2022-12-04T02:57:54.115Z,1.04
2022-12-04T02:58:54.270Z,1.04
2022-12-04T02:59:55.102Z,1.04
2022-12-04T03:00:54.591Z,1.04
2022-12-04T03:01:54.708Z,1.04
2022-12-04T03:02:54.882Z,1.04
2022-12-04T03:03:54.903Z,1.04
2022-12-04T03:04:55.065Z,1.04
2022-12-04T03:05:55.208Z,1.04
2022-12-04T03:06:55.352Z,1.04
2022-12-04T03:07:55.521Z,1.04
2022-12-04T03:08:55.613Z,1.04
2022-12-04T03:09:56.062Z,1.04
2022-12-04T03:10:55.881Z,1.04
2022-12-04T03:11:55.981Z,1.04
2022-12-04T03:12:56.113Z,1.04
2022-12-04T03:13:56.286Z,1.04
2022-12-04T03:14:56.983Z,1.04
2022-12-04T03:15:56.561Z,1.04
2022-12-04T03:16:56.764Z,1.04
2022-12-04T03:17:56.870Z,1.04
2022-12-04T03:18:57.009Z,1.04
2022-12-04T03:19:57.436Z,1.04
2022-12-04T03:20:57.254Z,1.04
2022-12-04T03:21:57.475Z,1.04
2022-12-04T03:22:57.509Z,1.04
2022-12-04T03:23:58.294Z,1.04
2022-12-04T03:24:57.837Z,1.04
2022-12-04T03:25:57.995Z,1.04
2022-12-04T03:26:58.087Z,1.04
2022-12-04T03:27:58.255Z,1.04
2022-12-04T03:28:58.390Z,1.04
2022-12-04T03:29:58.675Z,1.04
2022-12-04T03:30:59.501Z,1.04
2022-12-04T03:31:58.945Z,1.04
2022-12-04T03:32:59.094Z,1.04
2022-12-04T03:33:59.241Z,1.04
2022-12-04T03:34:59.391Z,1.04
2022-12-04T03:35:59.545Z,1.04
2022-12-04T03:36:59.665Z,1.04
2022-12-04T03:37:59.795Z,1.04
2022-12-04T03:38:59.946Z,1.04
2022-12-04T03:40:00.105Z,1.04
2022-12-04T03:41:00.253Z,1.04
2022-12-04T03:42:00.360Z,1.04
2022-12-04T03:43:00.521Z,1.04
2022-12-04T03:44:00.652Z,1.04
2022-12-04T03:45:01.494Z,1.04
2022-12-04T03:46:00.968Z,1.04
2022-12-04T03:47:01.010Z,1.04
2022-12-04T03:48:01.113Z,1.04
2022-12-04T03:49:01.285Z,1.04
2022-12-04T03:50:01.463Z,1.04
2022-12-04T03:51:01.568Z,1.04
2022-12-04T03:52:01.711Z,1.04
2022-12-04T03:53:01.811Z,1.04
2022-12-04T03:54:01.976Z,1.04
2022-12-04T03:55:02.067Z,1.04
2022-12-04T03:56:02.225Z,1.04
2022-12-04T03:57:02.337Z,1.04
2022-12-04T03:58:02.426Z,1.04
2022-12-04T03:59:02.617Z,1.04
2022-12-04T04:00:03.482Z,1.04
2022-12-04T04:01:02.905Z,1.04
2022-12-04T04:02:03.162Z,1.04
2022-12-04T04:03:03.221Z,1.04
2022-12-04T04:04:03.321Z,1.04
2022-12-04T04:05:03.476Z,1.04
2022-12-04T04:06:03.587Z,1.04
2022-12-04T04:07:03.761Z,1.04
2022-12-04T04:08:03.978Z,1.04
2022-12-04T04:09:04.004Z,1.04
2022-12-04T04:10:04.151Z,1.04
2022-12-04T04:11:04.296Z,1.04
2022-12-04T04:12:04.446Z,1.04
2022-12-04T04:13:04.604Z,1.04
2022-12-04T04:14:04.753Z,1.04
2022-12-04T04:15:05.394Z,1.04
2022-12-04T04:16:05.120Z,1.04
2022-12-04T04:17:05.148Z,1.04
2022-12-04T04:18:05.303Z,1.04
2022-12-04T04:19:05.451Z,1.04
2022-12-04T04:20:05.618Z,1.04
2022-12-04T04:21:05.779Z,1.04
2022-12-04T04:22:05.941Z,1.04
2022-12-04T04:23:06.066Z,1.04
2022-12-04T04:24:06.217Z,1.04
2022-12-04T04:25:06.380Z,1.04
2022-12-04T04:26:06.525Z,1.04
2022-12-04T04:27:06.622Z,1.04
2022-12-04T04:28:06.779Z,1.04
2022-12-04T04:29:06.910Z,1.04
2022-12-04T04:30:07.554Z,1.04
2022-12-04T04:31:07.298Z,1.04
2022-12-04T04:32:07.321Z,1.04
2022-12-04T04:33:07.473Z,1.04
2022-12-04T04:34:07.636Z,1.04
2022-12-04T04:35:07.781Z,1.04
2022-12-04T04:36:07.885Z,1.04
2022-12-04T04:37:08.037Z,1.04
2022-12-04T04:38:08.185Z,1.04
2022-12-04T04:39:08.286Z,1.04
2022-12-04T04:40:08.448Z,1.04
2022-12-04T04:41:08.595Z,1.04
2022-12-04T04:42:08.740Z,1.04
2022-12-04T04:43:08.892Z,1.04
2022-12-04T04:44:09.057Z,1.04
2022-12-04T04:45:09.682Z,1.04
2022-12-04T04:46:09.388Z,1.04
2022-12-04T04:47:09.444Z,1.04
2022-12-04T04:48:09.553Z,1.04
2022-12-04T04:49:09.710Z,1.04
2022-12-04T04:50:09.849Z,1.04
2022-12-04T04:51:10.001Z,1.04
2022-12-04T04:52:10.152Z,1.04
2022-12-04T04:53:10.288Z,1.04
2022-12-04T04:54:10.401Z,1.04
2022-12-04T04:55:10.563Z,1.04
2022-12-04T04:56:10.723Z,1.04
2022-12-04T04:57:10.869Z,1.04
2022-12-04T04:58:10.972Z,1.04
2022-12-04T04:59:11.116Z,1.04
2022-12-04T05:00:11.840Z,1.04
2022-12-04T05:01:11.583Z,1.04
2022-12-04T05:02:11.614Z,1.04
2022-12-04T05:03:11.759Z,1.04
2022-12-04T05:04:11.831Z,1.04
2022-12-04T05:05:11.928Z,1.04
2022-12-04T05:06:12.073Z,1.04
2022-12-04T05:07:12.188Z,1.04
2022-12-04T05:08:12.391Z,1.04
2022-12-04T05:09:12.476Z,1.04
2022-12-04T05:10:12.633Z,1.04
2022-12-04T05:11:12.729Z,1.04
2022-12-04T05:12:12.930Z,1.04
2022-12-04T05:13:13.027Z,1.04
2022-12-04T05:14:13.189Z,1.04
2022-12-04T05:15:13.871Z,1.04
2022-12-04T05:16:13.483Z,1.04
2022-12-04T05:17:13.557Z,1.04
2022-12-04T05:18:13.640Z,1.04
2022-12-04T05:19:13.852Z,1.04
2022-12-04T05:20:13.931Z,1.04
2022-12-04T05:21:14.093Z,1.04
2022-12-04T05:22:14.245Z,1.04
2022-12-04T05:23:14.401Z,1.04
2022-12-04T05:24:14.559Z,1.04
2022-12-04T05:25:14.711Z,1.04
2022-12-04T05:26:14.860Z,1.04
2022-12-04T05:27:15.020Z,1.04
2022-12-04T05:28:15.160Z,1.04
2022-12-04T05:29:15.320Z,1.04
2022-12-04T05:30:16.094Z,1.04
2022-12-04T05:31:15.711Z,1.04
2022-12-04T05:32:15.711Z,1.04
2022-12-04T05:33:15.866Z,1.04
2022-12-04T05:34:16.022Z,1.04
2022-12-04T05:35:16.169Z,1.04
2022-12-04T05:36:16.290Z,1.04
2022-12-04T05:37:16.418Z,1.04
2022-12-04T05:38:16.522Z,1.04
2022-12-04T05:39:16.671Z,1.04
2022-12-04T05:40:16.816Z,1.04
2022-12-04T05:41:16.972Z,1.04
2022-12-04T05:42:17.061Z,1.04
2022-12-04T05:43:17.227Z,1.04
2022-12-04T05:44:17.392Z,1.04
2022-12-04T05:45:18.148Z,1.04
2022-12-04T05:46:17.678Z,1.04
2022-12-04T05:47:17.739Z,1.04
2022-12-04T05:48:17.834Z,1.04
2022-12-04T05:49:17.991Z,1.04
2022-12-04T05:50:18.143Z,1.04
2022-12-04T05:51:18.332Z,1.04
2022-12-04T05:52:18.448Z,1.04
2022-12-04T05:53:18.581Z,1.04
2022-12-04T05:54:18.701Z,1.04
2022-12-04T05:55:18.850Z,1.04
2022-12-04T05:56:18.950Z,1.04
2022-12-04T05:57:19.093Z,1.04
2022-12-04T05:58:19.197Z,1.04
2022-12-04T05:59:19.378Z,1.04
2022-12-04T06:00:19.985Z,1.04
2022-12-04T06:01:19.647Z,1.04
2022-12-04T06:02:19.881Z,1.04
2022-12-04T06:03:20.017Z,1.04
2022-12-04T06:04:20.113Z,1.04
2022-12-04T06:05:20.264Z,1.04
2022-12-04T06:06:22.029Z,1.04
2022-12-04T06:07:20.594Z,1.04
2022-12-04T06:08:20.790Z,1.04
2022-12-04T06:09:20.874Z,1.04
2022-12-04T06:10:21.022Z,1.04
2022-12-04T06:11:21.166Z,1.04
2022-12-04T06:12:21.336Z,1.04
2022-12-04T06:13:21.478Z,1.04
2022-12-04T06:14:21.621Z,1.04
2022-12-04T06:15:22.298Z,1.04
2022-12-04T06:16:21.974Z,2
2022-12-04T06:17:21.971Z,2
2022-12-04T06:18:22.122Z,2
2022-12-04T06:19:22.278Z,2
2022-12-04T06:20:22.468Z,2
2022-12-04T06:21:22.596Z,3.04
2022-12-04T06:22:22.748Z,3.04
2022-12-04T06:23:22.898Z,3.04
2022-12-04T06:24:23.044Z,4
2022-12-04T06:25:23.199Z,4
2022-12-04T06:26:23.333Z,5.04
2022-12-04T06:27:27.881Z,6
2022-12-04T06:28:23.544Z,6
2022-12-04T06:29:23.701Z,8
2022-12-04T06:30:24.281Z,8
2022-12-04T06:31:23.929Z,9.04
2022-12-04T06:32:23.977Z,10
2022-12-04T06:33:24.136Z,11.04
2022-12-04T06:34:24.298Z,13.04
2022-12-04T06:35:24.456Z,16
2022-12-04T06:36:24.608Z,19.04
2022-12-04T06:37:24.720Z,23.04
2022-12-04T06:38:24.866Z,27.04
2022-12-04T06:39:24.957Z,31.04
2022-12-04T06:40:25.121Z,41.04
2022-12-04T06:41:25.232Z,48
2022-12-04T06:42:25.377Z,51.04
2022-12-04T06:43:25.533Z,54
2022-12-04T06:44:25.662Z,56
2022-12-04T06:45:26.398Z,58
2022-12-04T06:46:26.029Z,63.04
2022-12-04T06:47:26.108Z,71.04
2022-12-04T06:48:26.267Z,73.04
2022-12-04T06:49:26.435Z,83.04
2022-12-04T06:50:26.586Z,94
2022-12-04T06:51:26.721Z,105.04
2022-12-04T06:52:26.814Z,112
2022-12-04T06:53:26.973Z,127.04
2022-12-04T06:54:27.129Z,137.04
2022-12-04T06:55:27.226Z,147.04
2022-12-04T06:56:27.373Z,160
2022-12-04T06:57:27.542Z,164
2022-12-04T06:58:27.706Z,172
2022-12-04T06:59:27.804Z,179.04
2022-12-04T07:00:28.505Z,200
2022-12-04T07:01:28.109Z,218.08
2022-12-04T07:02:28.281Z,224
2022-12-04T07:03:28.299Z,254.08
2022-12-04T07:04:28.385Z,273.12
2022-12-04T07:05:28.484Z,287.04
2022-12-04T07:06:28.640Z,319.04
2022-12-04T07:07:28.837Z,348.16
2022-12-04T07:08:28.894Z,366.08
2022-12-04T07:09:29.057Z,401.28
2022-12-04T07:10:29.206Z,457.28
2022-12-04T07:11:29.361Z,474.24
2022-12-04T07:12:29.505Z,512
2022-12-04T07:13:29.655Z,528
2022-12-04T07:14:29.813Z,547.2
2022-12-04T07:15:30.424Z,570.24
2022-12-04T07:16:32.788Z,592
2022-12-04T07:17:30.307Z,593.28
2022-12-04T07:18:30.454Z,601.28
2022-12-04T07:19:30.606Z,630.08
2022-12-04T07:20:30.904Z,682.24
2022-12-04T07:21:30.863Z,724.48
2022-12-04T07:22:31.021Z,746.24
2022-12-04T07:23:31.174Z,758.4
2022-12-04T07:24:31.326Z,801.28
2022-12-04T07:25:31.430Z,835.2
2022-12-04T07:26:31.534Z,878.08
2022-12-04T07:27:31.671Z,878.08
2022-12-04T07:28:31.823Z,909.44
2022-12-04T07:29:31.933Z,892.16
2022-12-04T07:30:32.704Z,959.36
2022-12-04T07:31:32.358Z,966.4
2022-12-04T07:32:32.333Z,956.16
2022-12-04T07:33:32.429Z,1018.24
2022-12-04T07:34:32.598Z,1047.04
2022-12-04T07:35:32.721Z,1032.32
2022-12-04T07:36:32.844Z,1053.44
2022-12-04T07:37:32.996Z,1077.12
2022-12-04T07:38:33.134Z,1047.04
2022-12-04T07:39:33.247Z,1089.28
2022-12-04T07:40:33.388Z,1169.28
2022-12-04T07:41:33.550Z,1184
2022-12-04T07:42:33.739Z,1249.28
2022-12-04T07:43:33.831Z,1322.24
2022-12-04T07:44:34.466Z,1354.24
2022-12-04T07:45:34.151Z,1376
2022-12-04T07:46:34.227Z,1372.16
2022-12-04T07:47:34.291Z,1340.16
2022-12-04T07:48:34.465Z,1312
2022-12-04T07:49:34.600Z,1324.8
2022-12-04T07:50:34.751Z,1333.76
2022-12-04T07:51:34.903Z,1413.12
2022-12-04T07:52:35.068Z,1450.24
2022-12-04T07:53:35.221Z,1537.28
2022-12-04T07:54:35.319Z,1578.24
2022-12-04T07:55:35.467Z,1504
2022-12-04T07:56:35.614Z,1541.12
2022-12-04T07:57:35.767Z,1580.8
2022-12-04T07:58:35.915Z,1600
2022-12-04T07:59:37.037Z,1602.56
2022-12-04T08:00:36.213Z,1754.88
2022-12-04T08:01:36.438Z,1756.16
2022-12-04T08:02:36.473Z,1807.36
2022-12-04T08:03:37.064Z,1900.8
2022-12-04T08:04:36.866Z,2112
2022-12-04T08:05:36.923Z,2176
2022-12-04T08:06:37.087Z,2346.24
2022-12-04T08:07:37.307Z,2437.12
2022-12-04T08:08:37.390Z,2506.24
2022-12-04T08:09:37.557Z,2466.56
2022-12-04T08:10:37.691Z,2501.12
2022-12-04T08:11:37.840Z,2400
2022-12-04T08:12:37.987Z,2485.76
2022-12-04T08:13:38.138Z,2309.12
2022-12-04T08:14:38.790Z,2362.88
2022-12-04T08:15:38.386Z,2478.08
2022-12-04T08:16:38.614Z,2449.92
2022-12-04T08:17:38.706Z,2524.16
2022-12-04T08:18:38.848Z,2551.04
2022-12-04T08:19:38.998Z,2510.08
2022-12-04T08:20:39.155Z,2504.96
2022-12-04T08:21:39.252Z,2536.96
2022-12-04T08:22:39.408Z,2485.76
2022-12-04T08:23:39.558Z,2533.12
2022-12-04T08:24:39.712Z,2624
2022-12-04T08:25:39.853Z,2530.56
2022-12-04T08:26:39.972Z,2576.64
2022-12-04T08:27:43.228Z,2574.08
2022-12-04T08:28:40.259Z,2657.28
2022-12-04T08:29:40.978Z,2790.4
2022-12-04T08:30:40.575Z,2856.96
2022-12-04T08:31:40.765Z,2828.8
2022-12-04T08:32:40.820Z,2785.28
2022-12-04T08:33:40.967Z,2951.68
2022-12-04T08:34:41.117Z,3031.04
2022-12-04T08:35:41.226Z,3064.32
2022-12-04T08:36:41.323Z,3100.16
2022-12-04T08:37:41.508Z,3095.04
2022-12-04T08:38:41.635Z,3102.72
2022-12-04T08:39:41.775Z,3054.08
2022-12-04T08:40:41.895Z,2931.2
2022-12-04T08:41:42.070Z,2974.72
2022-12-04T08:42:42.190Z,2987.52
2022-12-04T08:43:42.336Z,3048.96
2022-12-04T08:44:43.001Z,3095.04
2022-12-04T08:45:42.741Z,3294.72
2022-12-04T08:46:42.819Z,3471.36
2022-12-04T08:47:43.651Z,3612.16
2022-12-04T08:48:42.996Z,3740.16
2022-12-04T08:49:43.149Z,4026.88
2022-12-04T08:50:43.285Z,4106.24
2022-12-04T08:51:43.451Z,3932.16
2022-12-04T08:52:43.583Z,3765.76
2022-12-04T08:53:43.739Z,3778.56
2022-12-04T08:54:43.898Z,3622.4
2022-12-04T08:55:44.053Z,3530.24
2022-12-04T08:56:44.207Z,3489.28
2022-12-04T08:57:44.374Z,3537.92
2022-12-04T08:58:44.459Z,3517.44
2022-12-04T08:59:45.250Z,3576.32
2022-12-04T09:00:44.722Z,3663.36
2022-12-04T09:01:44.910Z,3814.4
2022-12-04T09:02:45.014Z,3868.16
2022-12-04T09:03:45.207Z,4044.8
2022-12-04T09:04:45.441Z,4001.28
2022-12-04T09:05:45.469Z,3924.48
2022-12-04T09:06:45.572Z,3906.56
2022-12-04T09:07:45.707Z,3924.48
2022-12-04T09:08:45.816Z,3919.36
2022-12-04T09:09:48.325Z,4001.28
2022-12-04T09:10:46.126Z,3840
2022-12-04T09:11:46.268Z,3819.52
2022-12-04T09:12:46.426Z,3991.04
2022-12-04T09:13:46.598Z,4029.44
2022-12-04T09:14:47.455Z,4029.44
2022-12-04T09:15:46.916Z,3965.44
2022-12-04T09:16:46.978Z,3927.04
2022-12-04T09:17:47.152Z,3955.2
2022-12-04T09:18:47.283Z,4224
2022-12-04T09:19:47.433Z,4200.96
2022-12-04T09:20:47.601Z,4239.36
2022-12-04T09:21:47.742Z,4464.64
2022-12-04T09:23:03.192Z,4556.8
2022-12-04T09:23:47.989Z,4520.96
2022-12-04T09:24:48.096Z,4497.92
2022-12-04T09:25:48.239Z,4321.28
2022-12-04T09:26:48.399Z,3955.2
2022-12-04T09:27:48.540Z,3968
2022-12-04T09:28:48.693Z,3763.2
2022-12-04T09:29:49.479Z,3578.88
2022-12-04T09:30:48.990Z,3525.12
2022-12-04T09:31:49.045Z,3471.36
2022-12-04T09:32:49.145Z,3384.32
2022-12-04T09:33:49.309Z,3545.6
2022-12-04T09:34:52.609Z,3548.16
2022-12-04T09:35:49.633Z,3819.52
2022-12-04T09:36:49.719Z,3957.76
2022-12-04T09:37:49.850Z,4259.84
2022-12-04T09:38:49.904Z,4285.44
2022-12-04T09:39:50.043Z,4579.84
2022-12-04T09:40:50.186Z,4746.24
2022-12-04T09:41:50.388Z,4715.52
2022-12-04T09:42:50.514Z,4503.04
2022-12-04T09:43:50.654Z,4613.12
2022-12-04T09:44:50.802Z,4928
2022-12-04T09:45:50.948Z,5050.88
2022-12-04T09:46:51.996Z,4416
2022-12-04T09:47:51.276Z,3927.04
2022-12-04T09:48:51.430Z,3901.44
2022-12-04T09:49:51.582Z,3755.52
2022-12-04T09:50:51.716Z,4011.52
2022-12-04T09:51:51.813Z,3988.48
2022-12-04T09:52:51.939Z,3857.92
2022-12-04T09:53:52.085Z,3852.8
2022-12-04T09:54:52.245Z,4231.68
2022-12-04T09:55:52.387Z,4218.88
2022-12-04T09:56:52.531Z,4142.08
2022-12-04T09:57:55.903Z,3975.68
2022-12-04T09:58:52.830Z,4055.04
2022-12-04T09:59:53.630Z,4362.24
2022-12-04T10:00:53.130Z,4060.16
2022-12-04T10:01:53.288Z,3893.76
2022-12-04T10:02:53.580Z,3883.52
2022-12-04T10:03:53.756Z,3788.8
2022-12-04T10:04:53.759Z,3671.04
2022-12-04T10:05:53.913Z,3852.8
2022-12-04T10:06:54.087Z,4285.44
2022-12-04T10:07:54.327Z,4559.36
2022-12-04T10:08:54.369Z,4572.16
2022-12-04T10:09:54.935Z,4298.24
2022-12-04T10:10:54.607Z,4349.44
2022-12-04T10:11:54.796Z,4234.24
2022-12-04T10:12:54.902Z,4175.36
2022-12-04T10:13:55.066Z,4244.48
2022-12-04T10:14:55.901Z,4272.64
2022-12-04T10:15:55.560Z,4116.48
2022-12-04T10:16:55.551Z,3909.12
2022-12-04T10:17:56.190Z,3834.88
2022-12-04T10:18:55.809Z,4019.2
2022-12-04T10:19:56.203Z,4316.16
2022-12-04T10:20:56.137Z,4336.64
2022-12-04T10:21:56.287Z,4252.16
2022-12-04T10:22:56.432Z,4705.28
2022-12-04T10:23:56.582Z,4736
2022-12-04T10:24:56.762Z,4518.4
2022-12-04T10:25:56.901Z,4469.76
2022-12-04T10:26:57.042Z,4559.36
2022-12-04T10:27:57.182Z,4582.4
2022-12-04T10:28:57.311Z,4695.04
2022-12-04T10:29:58.204Z,5071.36
2022-12-04T10:30:57.670Z,5488.64
2022-12-04T10:31:57.677Z,5509.12
2022-12-04T10:32:57.841Z,5168.64
2022-12-04T10:33:57.982Z,4684.8
2022-12-04T10:34:58.139Z,4961.28
2022-12-04T10:35:58.236Z,5376
2022-12-04T10:36:58.472Z,5652.48
2022-12-04T10:37:58.548Z,5376
2022-12-04T10:38:58.649Z,5268.48
2022-12-04T10:39:59.061Z,4976.64
2022-12-04T10:40:58.958Z,5004.8
2022-12-04T10:41:59.110Z,5025.28
2022-12-04T10:42:59.262Z,4963.84
2022-12-04T10:43:59.420Z,5335.04
2022-12-04T10:45:00.026Z,5102.08
2022-12-04T10:45:59.704Z,4856.32
2022-12-04T10:46:59.906Z,4953.6
2022-12-04T10:48:00.005Z,4756.48
2022-12-04T10:49:00.156Z,4674.56
2022-12-04T10:50:00.273Z,4495.36
2022-12-04T10:51:00.421Z,4339.2
2022-12-04T10:52:00.522Z,4659.2
2022-12-04T10:53:00.674Z,4618.24
2022-12-04T10:54:00.771Z,4695.04
2022-12-04T10:55:00.907Z,4625.92
2022-12-04T10:56:01.018Z,4800
2022-12-04T10:57:01.204Z,4651.52
2022-12-04T10:58:01.330Z,4290.56
2022-12-04T10:59:01.481Z,4303.36
2022-12-04T11:00:02.295Z,4336.64
2022-12-04T11:01:01.718Z,4526.08
2022-12-04T11:02:06.481Z,4518.4
2022-12-04T11:03:02.030Z,4636.16
2022-12-04T11:04:02.118Z,4623.36
2022-12-04T11:05:02.282Z,4510.72
2022-12-04T11:06:02.430Z,4456.96
2022-12-04T11:07:02.580Z,4372.48
2022-12-04T11:08:03.006Z,4518.4
2022-12-04T11:09:02.878Z,4477.44
2022-12-04T11:10:02.994Z,4408.32
2022-12-04T11:11:03.149Z,4300.8
2022-12-04T11:12:03.297Z,4008.96
2022-12-04T11:13:03.442Z,3960.32
2022-12-04T11:14:03.625Z,3755.52
2022-12-04T11:15:04.309Z,3732.48
2022-12-04T11:16:03.980Z,3537.92
2022-12-04T11:17:04.059Z,3655.68
2022-12-04T11:18:04.148Z,3512.32
2022-12-04T11:19:04.306Z,3522.56
2022-12-04T11:20:04.478Z,3548.16
2022-12-04T11:21:04.606Z,3571.2
2022-12-04T11:22:04.793Z,3491.84
2022-12-04T11:23:04.855Z,3614.72
2022-12-04T11:24:05.005Z,3799.04
2022-12-04T11:25:05.156Z,3883.52
2022-12-04T11:26:06.356Z,3878.4
2022-12-04T11:27:05.418Z,3975.68
2022-12-04T11:28:05.569Z,3870.72
2022-12-04T11:29:05.659Z,3607.04
2022-12-04T11:30:06.511Z,3694.08
2022-12-04T11:31:06.032Z,3888.64
2022-12-04T11:32:07.925Z,4072.96
2022-12-04T11:33:06.276Z,4175.36
2022-12-04T11:34:06.429Z,4090.88
2022-12-04T11:35:06.652Z,3868.16
2022-12-04T11:36:07.344Z,4065.28
2022-12-04T11:37:06.850Z,4490.24
2022-12-04T11:38:06.977Z,4421.12
2022-12-04T11:39:07.091Z,4067.84
2022-12-04T11:40:07.186Z,3860.48
2022-12-04T11:41:07.329Z,3709.44
2022-12-04T11:42:07.481Z,3535.36
2022-12-04T11:43:07.657Z,3863.04
2022-12-04T11:44:07.800Z,3732.48
2022-12-04T11:45:08.614Z,3781.12
2022-12-04T11:46:08.096Z,4078.08
2022-12-04T11:47:08.285Z,3878.4
2022-12-04T11:48:08.423Z,4029.44
2022-12-04T11:49:08.547Z,4385.28
2022-12-04T11:50:08.704Z,4546.56
2022-12-04T11:51:08.838Z,3944.96
2022-12-04T11:52:09.007Z,3714.56
2022-12-04T11:53:09.149Z,3799.04
2022-12-04T11:54:09.303Z,3496.96
2022-12-04T11:55:09.468Z,3348.48
2022-12-04T11:56:09.597Z,3217.92
2022-12-04T11:57:09.755Z,3264
2022-12-04T11:58:09.911Z,3182.08
2022-12-04T11:59:10.039Z,3159.04
2022-12-04T12:00:10.721Z,3046.4
2022-12-04T12:01:10.305Z,2716.16
2022-12-04T12:02:10.504Z,2844.16
2022-12-04T12:03:10.745Z,3197.44
2022-12-04T12:04:10.662Z,3450.88
2022-12-04T12:05:10.847Z,3509.76
2022-12-04T12:06:10.971Z,3292.16
2022-12-04T12:07:11.113Z,2877.44
2022-12-04T12:08:11.273Z,2800.64
2022-12-04T12:09:11.374Z,2767.36
2022-12-04T12:10:11.475Z,2698.24
2022-12-04T12:11:11.625Z,2744.32
2022-12-04T12:12:11.762Z,2584.32
2022-12-04T12:13:11.926Z,2644.48
2022-12-04T12:14:12.078Z,2682.88
2022-12-04T12:15:12.708Z,2672.64
2022-12-04T12:16:12.364Z,2680.32
2022-12-04T12:17:12.491Z,2577.92
2022-12-04T12:18:12.985Z,2572.8
2022-12-04T12:19:12.737Z,2554.88
2022-12-04T12:20:12.887Z,2849.28
2022-12-04T12:21:13.033Z,2933.76
2022-12-04T12:22:13.215Z,2716.16
2022-12-04T12:23:13.337Z,2528
2022-12-04T12:24:13.497Z,2167.04
2022-12-04T12:25:13.628Z,2155.52
2022-12-04T12:26:13.736Z,2456.32
2022-12-04T12:27:13.842Z,2667.52
2022-12-04T12:28:13.997Z,2874.88
2022-12-04T12:29:14.154Z,2787.84
2022-12-04T12:30:15.023Z,2777.6
2022-12-04T12:31:14.630Z,2644.48
2022-12-04T12:32:14.674Z,2670.08
2022-12-04T12:33:14.752Z,2741.76
2022-12-04T12:34:14.927Z,3072
2022-12-04T12:35:15.062Z,3361.28
2022-12-04T12:36:15.201Z,3799.04
2022-12-04T12:37:15.365Z,3875.84
2022-12-04T12:38:15.462Z,3781.12
2022-12-04T12:39:15.648Z,3786.24
2022-12-04T12:40:15.794Z,3998.72
2022-12-04T12:41:15.917Z,4136.96
2022-12-04T12:42:16.073Z,4267.52
2022-12-04T12:43:16.267Z,4308.48
2022-12-04T12:44:16.411Z,3968
2022-12-04T12:45:17.074Z,3970.56
2022-12-04T12:46:16.712Z,4157.44
2022-12-04T12:47:16.819Z,3947.52
2022-12-04T12:48:16.977Z,3699.2
2022-12-04T12:49:17.128Z,3499.52
2022-12-04T12:50:17.289Z,3527.68
2022-12-04T12:51:29.907Z,3543.04